createdAt,value
2023-03-22T00:00:17.761Z,1.00
2023-03-22T00:02:48.117Z,1.00
2023-03-22T00:05:17.033Z,1.00
2023-03-22T00:07:45.790Z,1.00
2023-03-22T00:10:14.512Z,1.00
2023-03-22T00:12:43.260Z,1.00
2023-03-22T00:15:12.907Z,5.90
2023-03-22T00:17:42.263Z,5.00
2023-03-22T00:20:13.779Z,9.40
2023-03-22T00:22:42.569Z,22.90
2023-03-22T00:25:11.869Z,23.40
2023-03-22T00:27:40.638Z,65.50
2023-03-22T00:30:10.909Z,73.70
2023-03-22T00:32:40.164Z,73.00
2023-03-22T00:35:09.655Z,90.00
2023-03-22T00:37:40.134Z,94.90
2023-03-22T00:40:12.534Z,99.90
2023-03-22T00:42:42.699Z,99.90
2023-03-22T00:45:13.459Z,99.90
2023-03-22T00:47:42.349Z,99.90
2023-03-22T00:50:11.907Z,98.10
2023-03-22T00:52:42.102Z,99.90
2023-03-22T00:55:11.061Z,99.90
2023-03-22T00:57:39.762Z,74.10
2023-03-22T01:00:13.630Z,79.70
2023-03-22T01:02:42.793Z,91.20
2023-03-22T01:05:15.904Z,69.90
2023-03-22T01:07:46.335Z,65.50
2023-03-22T01:10:15.099Z,63.90
2023-03-22T01:12:43.774Z,59.60
2023-03-22T01:15:13.247Z,72.30
2023-03-22T01:17:42.109Z,52.90
2023-03-22T01:20:12.139Z,30.00
2023-03-22T01:22:41.955Z,30.60
2023-03-22T01:25:12.329Z,32.60
2023-03-22T01:27:41.179Z,36.70
2023-03-22T01:30:11.025Z,49.30
2023-03-22T01:32:40.141Z,57.20
2023-03-22T01:35:09.327Z,37.50
2023-03-22T01:37:38.103Z,36.90
2023-03-22T01:40:08.478Z,39.40
2023-03-22T01:42:38.617Z,34.90
2023-03-22T01:45:38.858Z,34.20
2023-03-22T01:48:13.964Z,31.00
2023-03-22T01:50:46.903Z,20.40
2023-03-22T01:53:19.006Z,41.90
2023-03-22T01:55:48.509Z,45.90
2023-03-22T01:58:19.279Z,51.90
2023-03-22T02:00:49.534Z,59.10
2023-03-22T02:03:23.774Z,66.70
2023-03-22T02:05:53.144Z,78.20
2023-03-22T02:08:21.981Z,59.30
2023-03-22T02:10:50.774Z,72.20
2023-03-22T02:13:39.146Z,59.90
2023-03-22T02:16:20.015Z,78.40
2023-03-22T02:19:04.054Z,95.00
2023-03-22T02:22:06.750Z,82.40
2023-03-22T02:25:14.072Z,93.40
2023-03-22T02:28:15.888Z,99.00
2023-03-22T02:31:23.744Z,99.90
2023-03-22T02:34:17.016Z,99.90
2023-03-22T02:37:08.974Z,99.90
2023-03-22T02:39:43.701Z,97.30
2023-03-22T02:42:25.050Z,75.10
2023-03-22T02:45:03.050Z,61.90
2023-03-22T02:47:40.965Z,52.20
2023-03-22T02:50:15.672Z,40.80
2023-03-22T02:52:48.644Z,40.20
2023-03-22T02:55:23.401Z,39.60
2023-03-22T02:57:57.651Z,41.70
2023-03-22T03:00:28.251Z,54.40
2023-03-22T03:03:01.385Z,71.30
2023-03-22T03:05:34.242Z,79.30
2023-03-22T03:08:04.304Z,66.70
2023-03-22T03:10:35.913Z,96.60
2023-03-22T03:13:04.620Z,87.60
2023-03-22T03:15:33.829Z,90.00
2023-03-22T03:18:22.809Z,86.40
2023-03-22T03:21:02.558Z,73.80
2023-03-22T03:23:40.379Z,98.70
2023-03-22T03:26:15.816Z,95.30
2023-03-22T03:28:52.858Z,93.10
2023-03-22T03:31:31.838Z,69.90
2023-03-22T03:34:09.229Z,49.70
2023-03-22T03:36:41.993Z,57.90
2023-03-22T03:39:14.324Z,21.60
2023-03-22T03:41:47.342Z,26.90
2023-03-22T03:44:17.984Z,29.00
2023-03-22T03:46:48.051Z,27.30
2023-03-22T03:49:18.560Z,30.00
2023-03-22T03:51:49.991Z,26.60
2023-03-22T03:54:18.765Z,17.40
2023-03-22T03:56:49.568Z,21.60
2023-03-22T03:59:19.493Z,17.10
2023-03-22T04:01:52.532Z,1.00
2023-03-22T04:04:26.935Z,1.00
2023-03-22T04:06:58.018Z,1.00
2023-03-22T04:09:28.336Z,5.30
2023-03-22T04:11:59.336Z,2.00
2023-03-22T04:14:28.941Z,1.00
2023-03-22T04:16:58.010Z,1.00
2023-03-22T04:19:26.905Z,1.00
2023-03-22T04:21:55.723Z,1.00
2023-03-22T04:24:24.470Z,1.00
2023-03-22T04:26:53.800Z,1.00
2023-03-22T04:29:24.751Z,1.00
2023-03-22T04:31:54.433Z,3.90
2023-03-22T04:34:23.160Z,1.00
2023-03-22T04:36:51.858Z,14.60
2023-03-22T04:39:20.589Z,24.80
2023-03-22T04:41:49.325Z,27.70
2023-03-22T04:44:18.078Z,35.70
2023-03-22T04:46:48.219Z,50.90
2023-03-22T04:49:17.171Z,76.40
2023-03-22T04:51:45.983Z,82.90
2023-03-22T04:54:14.691Z,92.40
2023-03-22T04:56:43.392Z,92.70
2023-03-22T04:59:12.256Z,93.30
2023-03-22T05:01:42.802Z,91.00
2023-03-22T05:04:13.157Z,99.90
2023-03-22T05:06:41.941Z,99.90
2023-03-22T05:09:11.202Z,99.90
2023-03-22T05:11:40.890Z,99.90
2023-03-22T05:14:10.241Z,99.90
2023-03-22T05:16:40.805Z,99.90
2023-03-22T05:19:14.171Z,99.90
2023-03-22T05:21:45.382Z,99.90
2023-03-22T05:24:14.257Z,99.90
2023-03-22T05:26:43.202Z,99.90
2023-03-22T05:29:12.489Z,99.90
2023-03-22T05:31:41.504Z,96.40
2023-03-22T05:34:10.284Z,91.20
2023-03-22T05:36:39.027Z,81.20
2023-03-22T05:39:09.517Z,71.90
2023-03-22T05:41:38.234Z,43.00
2023-03-22T05:44:07.328Z,48.20
2023-03-22T05:46:36.253Z,54.30
2023-03-22T05:49:05.019Z,69.40
2023-03-22T05:51:34.229Z,76.10
2023-03-22T05:54:03.023Z,62.60
2023-03-22T05:56:33.577Z,67.70
2023-03-22T05:59:02.357Z,63.50
2023-03-22T06:01:31.125Z,60.60
2023-03-22T06:04:06.094Z,52.70
2023-03-22T06:06:34.755Z,52.50
2023-03-22T06:09:16.531Z,68.30
2023-03-22T06:11:47.549Z,75.20
2023-03-22T06:14:16.317Z,53.50
2023-03-22T06:16:45.137Z,81.70
2023-03-22T06:19:13.947Z,74.70
2023-03-22T06:21:42.713Z,99.90
2023-03-22T06:24:11.868Z,99.90
2023-03-22T06:26:41.449Z,99.90
2023-03-22T06:29:11.711Z,93.50
2023-03-22T06:31:42.837Z,28.50
2023-03-22T06:34:11.457Z,31.60
2023-03-22T06:36:41.227Z,1.00
2023-03-22T06:39:10.414Z,1.00
2023-03-22T06:41:39.110Z,1.00
2023-03-22T06:44:07.862Z,99.90
2023-03-22T06:46:38.232Z,99.90
2023-03-22T06:49:08.191Z,99.90
2023-03-22T06:51:37.245Z,1.00
2023-03-22T06:54:06.228Z,1.00
2023-03-22T06:56:34.923Z,99.90
2023-03-22T06:59:04.423Z,99.90
2023-03-22T07:01:33.269Z,99.90
2023-03-22T07:04:04.178Z,35.50
2023-03-22T07:06:33.366Z,1.00
2023-03-22T07:09:02.490Z,1.00
2023-03-22T07:11:31.293Z,1.00
2023-03-22T07:13:59.997Z,1.00
2023-03-22T07:16:28.851Z,1.00
2023-03-22T07:18:57.922Z,99.90
2023-03-22T07:21:28.396Z,99.90
2023-03-22T07:23:58.497Z,99.90
2023-03-22T07:26:27.701Z,99.90
2023-03-22T07:28:57.140Z,99.90
2023-03-22T07:31:26.067Z,99.90
2023-03-22T07:33:54.837Z,99.90
2023-03-22T07:36:26.267Z,99.90
2023-03-22T07:38:56.810Z,99.90
2023-03-22T07:41:27.490Z,51.00
2023-03-22T07:44:07.885Z,30.50
2023-03-22T07:46:46.983Z,10.20
2023-03-22T07:49:20.563Z,1.00
2023-03-22T07:51:49.295Z,3.10
2023-03-22T07:54:33.565Z,8.70
2023-03-22T07:57:07.617Z,16.20
2023-03-22T07:59:40.281Z,5.00
2023-03-22T08:02:17.096Z,1.00
2023-03-22T08:04:53.889Z,1.00
2023-03-22T08:07:25.538Z,1.00
2023-03-22T08:09:56.828Z,1.00
2023-03-22T08:12:28.341Z,1.00
2023-03-22T08:14:57.357Z,1.00
2023-03-22T08:17:26.502Z,1.00
2023-03-22T08:19:56.411Z,1.00
2023-03-22T08:22:26.172Z,1.00
2023-03-22T08:24:56.430Z,1.00
2023-03-22T08:27:25.171Z,1.00
2023-03-22T08:29:53.991Z,1.00
2023-03-22T08:32:22.840Z,1.00
2023-03-22T08:34:51.649Z,1.00
2023-03-22T08:37:21.198Z,1.00
2023-03-22T08:39:49.971Z,1.00
2023-03-22T08:42:20.122Z,1.00
2023-03-22T08:44:49.481Z,1.00
2023-03-22T08:47:18.151Z,1.00
2023-03-22T08:49:46.957Z,1.00
2023-03-22T08:52:15.758Z,1.00
2023-03-22T08:54:44.559Z,1.00
2023-03-22T08:57:14.648Z,1.00
2023-03-22T08:59:44.898Z,1.00
2023-03-22T09:02:13.796Z,1.00
2023-03-22T09:04:43.025Z,1.00
2023-03-22T09:07:12.118Z,1.00
2023-03-22T09:09:42.243Z,1.00
2023-03-22T09:12:11.675Z,1.00
2023-03-22T09:14:40.567Z,1.00
2023-03-22T09:17:11.114Z,1.00
2023-03-22T09:19:40.069Z,1.00
2023-03-22T09:22:08.988Z,1.00
2023-03-22T09:24:39.369Z,1.00
2023-03-22T09:27:08.506Z,1.00
2023-03-22T09:29:37.527Z,1.00
2023-03-22T09:32:06.836Z,1.00
2023-03-22T09:34:37.320Z,1.00
2023-03-22T09:37:06.542Z,1.00
2023-03-22T09:39:38.643Z,1.00
2023-03-22T09:42:14.660Z,1.00
2023-03-22T09:44:46.527Z,1.00
2023-03-22T09:47:18.892Z,1.00
2023-03-22T09:49:54.099Z,1.00
2023-03-22T09:52:23.990Z,1.00
2023-03-22T09:54:53.418Z,1.00
2023-03-22T09:57:28.297Z,1.00
2023-03-22T10:00:11.408Z,1.00
2023-03-22T10:02:53.903Z,1.00
2023-03-22T10:05:33.536Z,1.00
2023-03-22T10:08:17.935Z,1.00
2023-03-22T10:10:47.030Z,1.00
2023-03-22T10:13:23.237Z,1.00
2023-03-22T10:15:54.641Z,1.00
2023-03-22T10:18:27.545Z,1.00
2023-03-22T10:21:02.140Z,1.00
2023-03-22T10:23:36.965Z,1.00
2023-03-22T10:26:08.095Z,1.00
2023-03-22T10:28:41.004Z,1.00
2023-03-22T10:31:17.751Z,1.00
2023-03-22T10:33:54.012Z,1.00
2023-03-22T10:36:27.926Z,1.00
2023-03-22T10:38:59.308Z,1.00
2023-03-22T10:41:31.035Z,1.00
2023-03-22T10:44:04.387Z,1.00
2023-03-22T10:46:38.598Z,1.00
2023-03-22T10:49:10.086Z,1.00
2023-03-22T10:51:44.964Z,1.00
2023-03-22T10:54:16.872Z,1.00
2023-03-22T10:56:47.757Z,1.00
2023-03-22T10:59:46.168Z,1.00
2023-03-22T11:02:31.614Z,1.00
2023-03-22T11:05:02.738Z,1.00
2023-03-22T11:07:35.595Z,1.00
2023-03-22T11:10:30.303Z,1.00
2023-03-22T11:13:35.183Z,1.00
2023-03-22T11:16:06.059Z,1.00
2023-03-22T11:18:36.873Z,1.00
2023-03-22T11:21:09.144Z,1.00
2023-03-22T11:23:42.825Z,1.00
2023-03-22T11:26:13.695Z,1.00
2023-03-22T11:28:47.948Z,1.00
2023-03-22T11:31:18.885Z,1.00
2023-03-22T11:33:58.294Z,1.00
2023-03-22T11:36:28.722Z,1.00
2023-03-22T11:39:03.517Z,1.00
2023-03-22T11:41:37.813Z,1.00
2023-03-22T11:44:10.090Z,1.00
2023-03-22T11:46:41.552Z,1.00
2023-03-22T11:49:16.228Z,1.00
2023-03-22T11:51:57.134Z,1.00
2023-03-22T11:54:32.890Z,1.00
2023-03-22T11:57:05.293Z,1.00
2023-03-22T11:59:40.290Z,1.00
2023-03-22T12:02:19.941Z,1.00
2023-03-22T12:04:52.003Z,1.00
2023-03-22T12:07:24.808Z,1.00
2023-03-22T12:10:19.017Z,1.00
2023-03-22T12:13:11.030Z,1.00
2023-03-22T12:15:48.748Z,1.00
2023-03-22T12:18:24.620Z,1.00
2023-03-22T12:20:57.492Z,1.00
2023-03-22T12:23:28.835Z,1.00
2023-03-22T12:26:04.085Z,1.00
2023-03-22T12:28:36.634Z,1.00
2023-03-22T12:31:08.213Z,1.00
2023-03-22T12:33:43.388Z,1.00
2023-03-22T12:36:17.685Z,1.00
2023-03-22T12:38:51.364Z,1.00
2023-03-22T12:41:28.654Z,1.00
2023-03-22T12:44:00.318Z,1.00
2023-03-22T12:46:33.206Z,1.00
2023-03-22T12:49:07.424Z,1.00
2023-03-22T12:51:36.912Z,1.00
2023-03-22T12:54:06.612Z,1.00
2023-03-22T12:56:41.350Z,1.00
2023-03-22T12:59:18.621Z,1.00
2023-03-22T13:01:52.424Z,1.00
2023-03-22T13:04:52.847Z,1.00
2023-03-22T13:07:41.372Z,1.00
2023-03-22T13:10:52.936Z,1.00
2023-03-22T13:13:56.205Z,1.00
2023-03-22T13:16:42.456Z,1.00
2023-03-22T13:19:34.772Z,1.00
2023-03-22T13:22:21.486Z,1.00
2023-03-22T13:25:29.311Z,1.00
2023-03-22T13:27:59.867Z,1.00
2023-03-22T13:30:34.978Z,1.00
2023-03-22T13:33:16.004Z,1.00
2023-03-22T13:35:48.996Z,1.00
2023-03-22T13:38:23.256Z,1.00
2023-03-22T13:40:58.031Z,1.00
2023-03-22T13:43:30.610Z,1.00
2023-03-22T13:46:30.984Z,1.00
2023-03-22T13:49:26.682Z,1.00
2023-03-22T13:51:57.519Z,1.00
2023-03-22T13:54:36.060Z,1.00
2023-03-22T13:57:04.916Z,1.00
2023-03-22T14:00:10.473Z,1.00
2023-03-22T14:02:44.582Z,1.00
2023-03-22T14:05:18.088Z,1.00
2023-03-22T14:07:51.594Z,1.00
2023-03-22T14:10:25.567Z,1.00
2023-03-22T14:12:59.620Z,1.00
2023-03-22T14:15:32.947Z,1.00
2023-03-22T14:18:09.823Z,1.00
2023-03-22T14:20:43.784Z,1.00
